Time;durP1;ratioP1;P1;durP2;ratioP2;P2;SDS_P1;SDS_P2;PMS_P1;PMS_P2;Temp;Humidity;BMP_temperature;BMP_pressure;BME280_temperature;BME280_humidity;BME280_pressure;Samples;Min_cycle;Max_cycle;Signal;HPM_P1;HPM_P2
2021/08/14 00:00:53;;;;;;;16.58;11.50;;;19.00;99.90;;;;;;5125265;27;20015;-77
2021/08/14 00:03:18;;;;;;;14.50;10.40;;;19.00;99.90;;;;;;5131414;27;20027;-77
2021/08/14 00:05:46;;;;;;;15.07;11.40;;;19.00;99.90;;;;;;5135277;27;20011;-77
2021/08/14 00:08:13;;;;;;;15.52;10.98;;;19.00;99.90;;;;;;5132026;27;20057;-77
2021/08/14 00:10:39;;;;;;;17.30;10.75;;;19.00;99.90;;;;;;5126121;27;20020;-77
2021/08/14 00:13:07;;;;;;;16.08;9.90;;;19.00;99.90;;;;;;5126978;27;20052;-77
2021/08/14 00:15:33;;;;;;;16.23;11.00;;;19.00;99.90;;;;;;5114842;28;20098;-77
2021/08/14 00:18:01;;;;;;;18.92;12.48;;;18.90;99.90;;;;;;5133551;27;20107;-77
2021/08/14 00:20:27;;;;;;;19.17;12.70;;;18.80;99.90;;;;;;5120407;27;20022;-77
2021/08/14 00:22:53;;;;;;;18.48;10.90;;;18.80;99.90;;;;;;5134734;27;20101;-76
2021/08/14 00:25:20;;;;;;;31.35;13.38;;;18.70;99.90;;;;;;5130515;27;20110;-76
2021/08/14 00:27:51;;;;;;;19.48;11.95;;;18.80;99.90;;;;;;5127567;27;20023;-76
2021/08/14 00:30:17;;;;;;;22.88;13.02;;;18.80;99.90;;;;;;5133708;27;20332;-76
2021/08/14 00:32:43;;;;;;;21.38;12.68;;;18.80;99.90;;;;;;5125239;27;20016;-76
2021/08/14 00:35:10;;;;;;;17.35;11.85;;;18.70;99.90;;;;;;5130265;27;20027;-76
2021/08/14 00:37:37;;;;;;;19.23;12.95;;;18.80;99.90;;;;;;5125640;27;20019;-76
2021/08/14 00:40:04;;;;;;;18.05;11.55;;;18.80;99.90;;;;;;5131424;27;20031;-76
2021/08/14 00:42:30;;;;;;;18.48;12.98;;;18.70;99.90;;;;;;5131057;27;20063;-76
2021/08/14 00:45:00;;;;;;;20.30;12.40;;;18.70;99.90;;;;;;5128521;27;20035;-76
2021/08/14 00:47:27;;;;;;;17.60;12.60;;;18.60;99.90;;;;;;5127324;27;20031;-76
2021/08/14 00:49:54;;;;;;;16.77;12.80;;;18.60;99.90;;;;;;5117122;27;20071;-76
2021/08/14 00:52:22;;;;;;;12.82;10.48;;;18.60;99.90;;;;;;5131357;27;20012;-76
2021/08/14 00:54:48;;;;;;;19.00;12.48;;;18.60;99.90;;;;;;5134097;27;20039;-76
2021/08/14 00:57:16;;;;;;;19.17;11.60;;;18.60;99.90;;;;;;5124792;27;20020;-75
2021/08/14 00:59:51;;;;;;;17.83;11.95;;;18.60;99.90;;;;;;5123749;27;20467;-76
2021/08/14 01:02:20;;;;;;;19.88;12.10;;;18.60;99.90;;;;;;5121747;27;20084;-75
2021/08/14 01:04:49;;;;;;;16.90;10.90;;;18.50;99.90;;;;;;5120567;27;20040;-75
2021/08/14 01:07:16;;;;;;;21.55;12.18;;;18.60;99.90;;;;;;5133494;27;20023;-75
2021/08/14 01:09:44;;;;;;;19.00;11.75;;;18.50;99.90;;;;;;5132092;27;20336;-76
2021/08/14 01:12:13;;;;;;;20.17;12.43;;;18.40;99.90;;;;;;5120208;27;20016;-75
2021/08/14 01:14:49;;;;;;;18.92;12.40;;;18.40;99.90;;;;;;5124883;27;20027;-75
2021/08/14 01:17:19;;;;;;;20.98;12.05;;;18.30;99.90;;;;;;5130521;28;20515;-76
2021/08/14 01:19:47;;;;;;;18.15;13.25;;;18.30;99.90;;;;;;5126817;28;20027;-76
2021/08/14 01:22:14;;;;;;;16.38;12.70;;;18.30;99.90;;;;;;5134315;28;20363;-76
2021/08/14 01:24:49;;;;;;;16.98;11.38;;;18.30;99.90;;;;;;5132589;28;20027;-77
2021/08/14 01:27:17;;;;;;;19.35;12.60;;;18.30;99.90;;;;;;5128815;28;20407;-77
2021/08/14 01:29:46;;;;;;;19.38;11.68;;;18.30;99.90;;;;;;5132702;28;20023;-77
2021/08/14 01:32:15;;;;;;;18.58;11.15;;;18.30;99.90;;;;;;5133902;27;20015;-77
2021/08/14 01:34:44;;;;;;;20.63;12.20;;;18.20;99.90;;;;;;5129885;28;20387;-77
2021/08/14 01:37:10;;;;;;;18.75;11.60;;;18.20;99.90;;;;;;5133809;27;20046;-77
2021/08/14 01:39:36;;;;;;;20.27;11.82;;;18.20;99.90;;;;;;5131372;28;20459;-76
2021/08/14 01:42:08;;;;;;;16.00;11.23;;;18.20;99.90;;;;;;5133765;28;20038;-76
2021/08/14 01:44:36;;;;;;;17.95;11.93;;;18.20;99.90;;;;;;5133658;27;20027;-76
2021/08/14 01:47:02;;;;;;;20.88;11.82;;;18.20;99.90;;;;;;5133683;27;20571;-76
2021/08/14 01:49:31;;;;;;;18.35;10.15;;;18.20;99.90;;;;;;5129773;27;20018;-76
2021/08/14 01:51:56;;;;;;;18.23;10.75;;;18.10;99.90;;;;;;5131250;28;20027;-76
2021/08/14 01:54:25;;;;;;;20.08;9.88;;;18.10;99.90;;;;;;5127564;28;20030;-76
2021/08/14 01:56:51;;;;;;;16.23;10.02;;;18.00;99.90;;;;;;5133784;28;20027;-76
2021/08/14 01:59:19;;;;;;;21.52;10.27;;;18.00;99.90;;;;;;5122060;28;20031;-76
2021/08/14 02:01:48;;;;;;;18.92;11.27;;;18.00;99.90;;;;;;5132152;28;20409;-76
2021/08/14 02:04:14;;;;;;;18.15;11.02;;;18.00;99.90;;;;;;5123585;28;20072;-76
2021/08/14 02:06:43;;;;;;;20.38;12.15;;;18.00;99.90;;;;;;5120032;28;20024;-76
2021/08/14 02:09:09;;;;;;;19.73;11.35;;;18.00;99.90;;;;;;5113343;28;20090;-76
2021/08/14 02:11:38;;;;;;;19.48;11.40;;;18.00;99.90;;;;;;5118946;28;20068;-76
2021/08/14 02:14:05;;;;;;;19.15;11.20;;;18.00;99.90;;;;;;5132404;28;20091;-76
2021/08/14 02:16:33;;;;;;;19.45;12.27;;;18.00;99.90;;;;;;5121376;28;20039;-76
2021/08/14 02:19:00;;;;;;;19.30;11.43;;;17.90;99.90;;;;;;5130918;28;20435;-76
2021/08/14 02:21:26;;;;;;;18.85;12.45;;;17.90;99.90;;;;;;5127396;27;20424;-76
2021/08/14 02:23:53;;;;;;;17.85;12.23;;;17.90;99.90;;;;;;5122467;27;20031;-76
2021/08/14 02:26:19;;;;;;;21.10;11.55;;;17.80;99.90;;;;;;5132559;27;20068;-76
2021/08/14 02:28:45;;;;;;;18.20;10.82;;;17.90;99.90;;;;;;5120504;27;20395;-76
2021/08/14 02:31:10;;;;;;;22.00;11.45;;;17.90;99.90;;;;;;5136420;27;20162;-76
2021/08/14 02:33:36;;;;;;;19.67;11.40;;;17.80;99.90;;;;;;5137202;27;20094;-76
2021/08/14 02:36:04;;;;;;;19.05;11.05;;;17.80;99.90;;;;;;5126167;27;20012;-76
2021/08/14 02:38:31;;;;;;;18.08;11.52;;;17.80;99.90;;;;;;5129911;27;20027;-76
2021/08/14 02:40:57;;;;;;;20.63;10.70;;;17.80;99.90;;;;;;5131497;27;20163;-76
2021/08/14 02:43:29;;;;;;;15.20;10.02;;;17.70;99.90;;;;;;5125730;27;20024;-76
2021/08/14 02:46:02;;;;;;;18.35;9.50;;;17.70;99.90;;;;;;5128565;27;20478;-76
2021/08/14 02:48:28;;;;;;;22.67;10.65;;;17.70;99.90;;;;;;5129993;27;20012;-76
2021/08/14 02:50:54;;;;;;;14.82;10.23;;;17.70;99.90;;;;;;5134597;27;20039;-76
2021/08/14 02:53:20;;;;;;;15.80;9.18;;;17.60;99.90;;;;;;5121811;27;20082;-76
2021/08/14 02:55:47;;;;;;;19.48;9.95;;;17.60;99.90;;;;;;5136563;27;20048;-76
2021/08/14 02:58:13;;;;;;;18.75;10.27;;;17.60;99.90;;;;;;5134778;27;20095;-76
2021/08/14 03:00:39;;;;;;;19.63;9.40;;;17.60;99.90;;;;;;5125638;27;20483;-76
2021/08/14 03:03:06;;;;;;;16.50;9.68;;;17.60;99.90;;;;;;5134413;27;20038;-76
2021/08/14 03:05:32;;;;;;;14.18;10.02;;;17.60;99.90;;;;;;5131135;27;20364;-76
2021/08/14 03:07:57;;;;;;;13.43;8.25;;;17.60;99.90;;;;;;5127720;27;20034;-76
2021/08/14 03:10:23;;;;;;;14.02;9.38;;;17.60;99.90;;;;;;5128888;27;20021;-76
2021/08/14 03:12:50;;;;;;;18.05;9.60;;;17.60;99.90;;;;;;5131481;27;20067;-76
2021/08/14 03:15:17;;;;;;;16.10;10.77;;;17.60;99.90;;;;;;5136118;27;20027;-76
2021/08/14 03:17:43;;;;;;;17.10;8.93;;;17.50;99.90;;;;;;5136246;27;20023;-76
2021/08/14 03:20:10;;;;;;;14.60;9.52;;;17.50;99.90;;;;;;5125446;27;20119;-76
2021/08/14 03:22:37;;;;;;;21.48;9.18;;;17.50;99.90;;;;;;5135816;27;20040;-76
2021/08/14 03:25:04;;;;;;;18.80;9.73;;;17.50;99.90;;;;;;5135988;27;20063;-76
2021/08/14 03:27:32;;;;;;;15.52;9.10;;;17.40;99.90;;;;;;5132637;27;20022;-76
2021/08/14 03:30:00;;;;;;;16.20;8.82;;;17.40;99.90;;;;;;5133164;27;20463;-76
2021/08/14 03:32:26;;;;;;;19.80;9.18;;;17.30;99.90;;;;;;5124736;27;20453;-76
2021/08/14 03:34:52;;;;;;;24.42;8.70;;;17.30;99.90;;;;;;5135647;27;20102;-76
2021/08/14 03:37:17;;;;;;;17.80;9.65;;;17.30;99.90;;;;;;5127375;27;20050;-76
2021/08/14 03:39:46;;;;;;;20.85;8.55;;;17.20;99.90;;;;;;5132089;27;20106;-76
2021/08/14 03:42:13;;;;;;;14.80;7.72;;;17.20;99.90;;;;;;5135575;27;20106;-76
2021/08/14 03:44:41;;;;;;;18.52;7.57;;;17.20;99.90;;;;;;5128464;27;20031;-76
2021/08/14 03:47:07;;;;;;;13.02;7.82;;;17.20;99.90;;;;;;5134681;27;20049;-76
2021/08/14 03:49:35;;;;;;;15.73;8.15;;;17.10;99.90;;;;;;5132785;27;20051;-76
2021/08/14 03:52:00;;;;;;;15.80;7.85;;;17.10;99.90;;;;;;5125860;27;20054;-76
2021/08/14 03:54:26;;;;;;;17.23;8.05;;;17.10;99.90;;;;;;5134193;27;20055;-76
2021/08/14 03:56:56;;;;;;;16.00;7.60;;;17.10;99.90;;;;;;5134579;27;20087;-76
2021/08/14 03:59:27;;;;;;;22.17;8.60;;;17.10;99.90;;;;;;5134333;27;20493;-76
2021/08/14 04:01:54;;;;;;;18.27;8.82;;;17.10;99.90;;;;;;5123265;27;20049;-76
2021/08/14 04:04:21;;;;;;;22.08;8.75;;;17.10;99.90;;;;;;5123083;27;20027;-76
2021/08/14 04:06:47;;;;;;;18.08;8.55;;;17.10;99.90;;;;;;5124942;27;20015;-76
2021/08/14 04:09:14;;;;;;;18.85;8.45;;;17.10;99.90;;;;;;5134005;27;20023;-76
2021/08/14 04:11:43;;;;;;;15.55;9.10;;;17.10;99.90;;;;;;5130661;27;20493;-76
2021/08/14 04:14:11;;;;;;;18.73;10.15;;;17.00;99.90;;;;;;5124453;27;20027;-76
2021/08/14 04:16:38;;;;;;;16.38;9.10;;;17.00;99.90;;;;;;5128868;27;20034;-76
2021/08/14 04:19:04;;;;;;;22.58;9.27;;;16.90;99.90;;;;;;5130888;27;20035;-76
2021/08/14 04:21:30;;;;;;;21.55;10.55;;;16.90;99.90;;;;;;5125586;27;20088;-76
2021/08/14 04:23:55;;;;;;;18.77;9.68;;;16.90;99.90;;;;;;5133078;27;20038;-76
2021/08/14 04:26:22;;;;;;;17.60;10.38;;;17.00;99.90;;;;;;5133127;27;20061;-76
2021/08/14 04:28:48;;;;;;;22.08;10.35;;;16.90;99.90;;;;;;5131375;27;20361;-76
2021/08/14 04:31:14;;;;;;;18.63;10.38;;;16.90;99.90;;;;;;5128387;27;20460;-76
2021/08/14 04:33:40;;;;;;;15.25;9.95;;;17.00;99.90;;;;;;5123817;27;20012;-76
2021/08/14 04:36:05;;;;;;;20.63;10.02;;;16.90;99.90;;;;;;5132303;27;20022;-76
2021/08/14 04:38:33;;;;;;;23.50;10.23;;;16.90;99.90;;;;;;5134608;27;20050;-76
2021/08/14 04:40:59;;;;;;;25.33;10.40;;;16.90;99.90;;;;;;5120291;27;20019;-76
2021/08/14 04:43:27;;;;;;;18.58;9.68;;;17.00;99.90;;;;;;5133157;27;20022;-76
2021/08/14 04:45:53;;;;;;;20.88;10.57;;;16.90;99.90;;;;;;5129523;27;20038;-76
2021/08/14 04:48:19;;;;;;;22.58;10.05;;;16.90;99.90;;;;;;5127242;27;20027;-76
2021/08/14 04:50:45;;;;;;;23.05;9.82;;;16.80;99.90;;;;;;5133383;27;20019;-75
2021/08/14 04:53:11;;;;;;;16.00;10.93;;;16.80;99.90;;;;;;5123879;27;20038;-75
2021/08/14 04:55:38;;;;;;;20.63;10.75;;;16.80;99.90;;;;;;5134522;27;20023;-76
2021/08/14 04:58:04;;;;;;;18.23;10.95;;;16.90;99.90;;;;;;5133494;27;20491;-76
2021/08/14 05:00:32;;;;;;;18.58;10.57;;;16.90;99.90;;;;;;5131850;27;20079;-76
2021/08/14 05:02:57;;;;;;;23.10;9.88;;;16.90;99.90;;;;;;5128733;27;20479;-76
2021/08/14 05:05:23;;;;;;;21.55;10.73;;;16.80;99.90;;;;;;5133291;27;20023;-76
2021/08/14 05:07:50;;;;;;;23.13;11.48;;;16.80;99.90;;;;;;5130861;27;20060;-76
2021/08/14 05:10:16;;;;;;;19.73;9.90;;;16.90;99.90;;;;;;5132723;27;20030;-76
2021/08/14 05:12:44;;;;;;;18.90;9.93;;;16.80;99.90;;;;;;5122536;27;20130;-76
2021/08/14 05:15:10;;;;;;;21.40;10.13;;;16.80;99.90;;;;;;5133084;27;20028;-76
2021/08/14 05:17:36;;;;;;;21.80;10.52;;;16.80;99.90;;;;;;5120920;28;20024;-76
2021/08/14 05:20:03;;;;;;;15.80;9.23;;;16.80;99.90;;;;;;5127916;28;20023;-76
2021/08/14 05:22:28;;;;;;;21.80;10.02;;;16.90;99.90;;;;;;5128663;28;20103;-76
2021/08/14 05:24:54;;;;;;;21.80;10.10;;;16.80;99.90;;;;;;5123533;28;20063;-76
2021/08/14 05:27:19;;;;;;;18.98;10.00;;;16.90;99.90;;;;;;5133852;28;20023;-76
2021/08/14 05:29:45;;;;;;;20.75;9.48;;;16.90;99.90;;;;;;5128104;28;20030;-76
2021/08/14 05:32:11;;;;;;;18.35;9.68;;;16.90;99.90;;;;;;5132534;28;20441;-76
2021/08/14 05:34:36;;;;;;;19.42;10.13;;;16.90;99.90;;;;;;5133957;27;20031;-76
2021/08/14 05:37:08;;;;;;;18.00;10.05;;;16.90;99.90;;;;;;5126568;28;20023;-76
2021/08/14 05:39:34;;;;;;;19.05;9.75;;;16.90;99.90;;;;;;5128826;28;20023;-76
2021/08/14 05:42:01;;;;;;;18.00;8.77;;;16.90;99.90;;;;;;5119473;28;20084;-76
2021/08/14 05:44:27;;;;;;;23.13;9.95;;;16.90;99.90;;;;;;5121361;28;20114;-76
2021/08/14 05:46:55;;;;;;;18.45;8.90;;;16.90;99.90;;;;;;5130445;28;20058;-76
2021/08/14 05:49:21;;;;;;;19.23;8.57;;;16.90;99.90;;;;;;5125603;28;20444;-76
2021/08/14 05:51:48;;;;;;;22.23;9.55;;;16.90;99.90;;;;;;5133876;28;20050;-76
2021/08/14 05:54:14;;;;;;;14.75;8.15;;;17.00;99.90;;;;;;5131236;28;20042;-76
2021/08/14 05:56:41;;;;;;;16.33;6.97;;;17.00;99.90;;;;;;5120651;27;20107;-76
2021/08/14 05:59:08;;;;;;;19.83;8.95;;;17.00;99.90;;;;;;5136397;27;20031;-76
2021/08/14 06:01:34;;;;;;;17.42;7.40;;;17.10;99.90;;;;;;5131752;27;20027;-76
2021/08/14 06:04:00;;;;;;;18.85;7.85;;;17.10;99.90;;;;;;5137712;27;20046;-76
2021/08/14 06:06:26;;;;;;;13.73;7.10;;;17.10;99.90;;;;;;5131459;27;20023;-76
2021/08/14 06:08:53;;;;;;;18.92;8.10;;;17.10;99.90;;;;;;5136342;27;20019;-76
2021/08/14 06:11:18;;;;;;;19.95;7.55;;;17.10;99.90;;;;;;5125444;27;20043;-76
2021/08/14 06:13:46;;;;;;;16.52;6.95;;;17.00;99.90;;;;;;5133971;27;20479;-76
2021/08/14 06:16:14;;;;;;;20.90;7.50;;;17.10;99.90;;;;;;5134495;27;20533;-76
2021/08/14 06:18:41;;;;;;;21.33;7.57;;;17.10;99.90;;;;;;5131306;27;20019;-76
2021/08/14 06:21:11;;;;;;;22.15;7.15;;;17.20;99.90;;;;;;5128191;27;20467;-76
2021/08/14 06:23:36;;;;;;;20.35;6.90;;;17.10;99.90;;;;;;5130802;27;20030;-76
2021/08/14 06:26:04;;;;;;;19.55;6.47;;;17.10;99.90;;;;;;5136680;27;20098;-76
2021/08/14 06:28:32;;;;;;;17.67;5.97;;;17.20;99.90;;;;;;5135873;27;20041;-76
2021/08/14 06:30:57;;;;;;;22.23;6.68;;;17.20;99.90;;;;;;5129340;27;20047;-76
2021/08/14 06:33:23;;;;;;;13.18;5.55;;;17.20;99.90;;;;;;5132926;27;20538;-76
2021/08/14 06:35:49;;;;;;;21.33;6.88;;;17.30;99.90;;;;;;5131102;27;20022;-76
2021/08/14 06:38:16;;;;;;;23.58;6.43;;;17.30;99.90;;;;;;5133920;27;20032;-76
2021/08/14 06:40:41;;;;;;;18.08;6.22;;;17.20;99.90;;;;;;5123183;27;20471;-76
2021/08/14 06:43:07;;;;;;;20.23;6.85;;;17.20;99.90;;;;;;5129160;27;20046;-76
2021/08/14 06:45:34;;;;;;;18.08;6.20;;;17.20;99.90;;;;;;5130787;27;20471;-76
2021/08/14 06:48:02;;;;;;;11.20;4.80;;;17.20;99.90;;;;;;5133511;27;20027;-76
2021/08/14 06:50:29;;;;;;;17.88;6.38;;;17.30;99.90;;;;;;5135340;27;20024;-76
2021/08/14 06:52:54;;;;;;;24.13;7.40;;;17.30;99.90;;;;;;5136657;27;20023;-76
2021/08/14 06:55:20;;;;;;;21.60;6.80;;;17.40;99.90;;;;;;5129059;27;20110;-76
2021/08/14 06:57:46;;;;;;;17.92;6.70;;;17.40;99.90;;;;;;5130075;27;20047;-76
2021/08/14 07:00:13;;;;;;;20.48;6.20;;;17.50;99.90;;;;;;5122893;27;20069;-76
2021/08/14 07:02:42;;;;;;;17.90;6.28;;;17.60;99.90;;;;;;5123422;27;20530;-76
2021/08/14 07:05:09;;;;;;;19.95;6.93;;;17.60;99.90;;;;;;5129090;27;20415;-76
2021/08/14 07:07:34;;;;;;;19.63;7.38;;;17.70;99.90;;;;;;5132150;27;20023;-76
2021/08/14 07:10:06;;;;;;;21.05;6.97;;;17.70;99.90;;;;;;5126855;27;20098;-76
2021/08/14 07:12:32;;;;;;;17.98;6.72;;;17.70;99.90;;;;;;5125192;27;20018;-76
2021/08/14 07:14:59;;;;;;;21.92;7.30;;;17.80;99.90;;;;;;5130903;27;20030;-76
2021/08/14 07:17:25;;;;;;;17.67;5.43;;;17.80;99.90;;;;;;5131457;27;20023;-76
2021/08/14 07:19:52;;;;;;;21.95;7.53;;;17.90;99.90;;;;;;5136382;27;20027;-76
2021/08/14 07:22:17;;;;;;;21.05;7.00;;;18.00;99.90;;;;;;5120952;27;20049;-76
2021/08/14 07:24:43;;;;;;;18.88;6.40;;;18.00;99.90;;;;;;5134273;27;20535;-76
2021/08/14 07:27:09;;;;;;;19.48;7.85;;;18.00;99.90;;;;;;5135654;27;20037;-76
2021/08/14 07:29:34;;;;;;;23.33;7.72;;;18.20;99.90;;;;;;5136155;27;20024;-76
2021/08/14 07:32:00;;;;;;;15.63;6.43;;;18.20;99.90;;;;;;5125897;27;20032;-76
2021/08/14 07:34:26;;;;;;;19.58;7.00;;;18.30;99.90;;;;;;5127939;27;20034;-76
2021/08/14 07:36:54;;;;;;;17.90;6.55;;;18.30;99.90;;;;;;5135972;27;20031;-76
2021/08/14 07:39:20;;;;;;;19.60;6.93;;;18.50;99.90;;;;;;5130332;27;20020;-76
2021/08/14 07:41:46;;;;;;;18.70;6.65;;;18.60;99.90;;;;;;5130954;27;20037;-76
2021/08/14 07:44:11;;;;;;;18.85;7.53;;;18.70;99.90;;;;;;5130923;27;20060;-76
2021/08/14 07:46:37;;;;;;;16.85;6.90;;;18.80;99.90;;;;;;5125174;27;20019;-76
2021/08/14 07:49:06;;;;;;;20.98;7.32;;;18.90;99.90;;;;;;5127302;27;20495;-76
2021/08/14 07:51:31;;;;;;;25.23;7.82;;;18.90;99.90;;;;;;5126650;27;20039;-76
2021/08/14 07:53:57;;;;;;;23.73;6.90;;;19.10;99.90;;;;;;5132210;27;20023;-76
2021/08/14 07:56:24;;;;;;;17.42;5.75;;;19.20;99.90;;;;;;5134046;27;20385;-76
2021/08/14 07:58:50;;;;;;;23.83;7.25;;;19.30;99.90;;;;;;5129992;27;20027;-76
2021/08/14 08:01:15;;;;;;;18.65;6.03;;;19.40;99.90;;;;;;5135843;27;20038;-76
2021/08/14 08:03:41;;;;;;;19.35;6.05;;;19.50;99.90;;;;;;5127901;27;20023;-76
2021/08/14 08:06:12;;;;;;;19.33;5.90;;;19.60;99.90;;;;;;5131133;27;20536;-76
2021/08/14 08:08:40;;;;;;;15.27;6.25;;;19.70;99.90;;;;;;5126372;27;20031;-76
2021/08/14 08:11:06;;;;;;;17.20;6.57;;;19.60;99.90;;;;;;5135387;27;20043;-76
2021/08/14 08:13:32;;;;;;;13.60;5.82;;;19.80;99.90;;;;;;5131242;27;20063;-76
2021/08/14 08:15:59;;;;;;;14.88;6.00;;;19.80;99.90;;;;;;5123924;27;20039;-76
2021/08/14 08:18:25;;;;;;;16.25;5.45;;;19.80;99.90;;;;;;5128736;27;20428;-76
2021/08/14 08:20:51;;;;;;;15.50;5.05;;;20.00;99.90;;;;;;5123855;27;20015;-76
2021/08/14 08:23:17;;;;;;;20.13;5.72;;;20.00;99.90;;;;;;5121802;27;20023;-76
2021/08/14 08:25:48;;;;;;;11.98;5.60;;;20.10;99.90;;;;;;5129885;27;20011;-76
2021/08/14 08:28:23;;;;;;;15.40;5.83;;;20.20;99.90;;;;;;5122034;27;20020;-76
2021/08/14 08:30:52;;;;;;;11.02;4.72;;;20.20;99.90;;;;;;5129045;27;20633;-76
2021/08/14 08:33:18;;;;;;;20.23;6.15;;;20.30;99.90;;;;;;5123816;27;20016;-76
2021/08/14 08:35:43;;;;;;;12.90;4.93;;;20.40;99.90;;;;;;5132640;27;20029;-76
2021/08/14 08:38:11;;;;;;;16.42;5.82;;;20.40;99.90;;;;;;5129915;27;20022;-76
2021/08/14 08:40:40;;;;;;;18.17;5.63;;;20.60;99.90;;;;;;5122330;27;20024;-76
2021/08/14 08:43:08;;;;;;;16.33;5.50;;;20.60;99.90;;;;;;5123091;27;20065;-76
2021/08/14 08:45:34;;;;;;;16.08;5.63;;;20.80;99.90;;;;;;5134564;27;20019;-76
2021/08/14 08:48:03;;;;;;;17.13;5.35;;;20.80;99.90;;;;;;5131375;27;20026;-76
2021/08/14 08:50:32;;;;;;;11.65;4.97;;;20.90;99.90;;;;;;5130979;27;20539;-76
2021/08/14 08:52:59;;;;;;;13.95;4.93;;;21.00;99.90;;;;;;5119466;27;20016;-77
2021/08/14 08:55:26;;;;;;;13.73;5.13;;;21.00;99.90;;;;;;5131646;27;20027;-77
2021/08/14 08:57:53;;;;;;;13.35;5.25;;;21.20;99.90;;;;;;5134378;27;20628;-77
2021/08/14 09:00:25;;;;;;;11.05;4.60;;;21.30;99.90;;;;;;5133207;27;20028;-77
2021/08/14 09:03:12;;;;;;;9.85;4.55;;;21.40;99.90;;;;;;5130676;27;20030;-77
2021/08/14 09:05:51;;;;;;;17.00;4.72;;;21.60;99.90;;;;;;5128027;27;20050;-77
2021/08/14 09:08:20;;;;;;;9.57;4.60;;;21.80;99.90;;;;;;5133280;27;20019;-77
2021/08/14 09:10:46;;;;;;;11.20;4.15;;;22.00;99.90;;;;;;5131398;27;20027;-76
2021/08/14 09:13:17;;;;;;;17.98;4.30;;;22.10;99.90;;;;;;5134288;27;20386;-77
2021/08/14 09:15:46;;;;;;;15.80;4.43;;;22.30;99.90;;;;;;5132301;27;20026;-77
2021/08/14 09:18:15;;;;;;;10.30;3.90;;;22.50;99.90;;;;;;5127207;27;20045;-77
2021/08/14 09:20:50;;;;;;;8.15;3.58;;;22.60;99.90;;;;;;5116995;28;20027;-76
2021/08/14 09:23:16;;;;;;;11.23;4.15;;;22.70;99.90;;;;;;5134227;27;20023;-77
2021/08/14 09:25:56;;;;;;;11.57;4.18;;;22.90;99.90;;;;;;5124611;27;20495;-77
2021/08/14 09:28:35;;;;;;;14.25;3.67;;;23.00;99.90;;;;;;5126262;28;20994;-77
2021/08/14 09:31:05;;;;;;;7.10;3.35;;;23.20;99.90;;;;;;5123704;27;20019;-77
2021/08/14 09:33:34;;;;;;;8.35;3.25;;;23.40;99.90;;;;;;5127535;27;20023;-77
2021/08/14 09:36:04;;;;;;;13.05;4.25;;;23.40;99.90;;;;;;5133159;27;20079;-77
2021/08/14 09:38:40;;;;;;;10.35;3.78;;;23.50;99.90;;;;;;5130197;27;20031;-77
2021/08/14 09:41:08;;;;;;;9.85;4.28;;;23.60;99.90;;;;;;5118987;27;20034;-77
2021/08/14 09:43:35;;;;;;;7.35;4.05;;;23.60;99.90;;;;;;5133184;27;20019;-77
2021/08/14 09:46:03;;;;;;;11.02;3.80;;;23.80;99.90;;;;;;5131739;27;20095;-77
2021/08/14 09:48:31;;;;;;;13.50;5.18;;;23.80;99.90;;;;;;5122806;27;20475;-77
2021/08/14 09:50:59;;;;;;;11.23;4.43;;;23.90;99.90;;;;;;5135222;27;20023;-77
2021/08/14 09:53:28;;;;;;;11.82;4.40;;;23.90;99.90;;;;;;5120301;27;20027;-77
2021/08/14 09:56:08;;;;;;;7.38;4.15;;;24.10;99.90;;;;;;5137658;27;20027;-77
2021/08/14 09:58:40;;;;;;;10.50;3.88;;;24.20;99.90;;;;;;5134462;27;20071;-78
2021/08/14 10:01:07;;;;;;;12.38;4.38;;;24.20;99.90;;;;;;5137624;27;20076;-77
2021/08/14 10:03:34;;;;;;;8.15;4.13;;;24.40;99.90;;;;;;5127077;27;20024;-78
2021/08/14 10:06:02;;;;;;;12.38;4.10;;;24.50;99.90;;;;;;5129077;27;20658;-78
2021/08/14 10:08:34;;;;;;;7.28;3.83;;;24.60;99.90;;;;;;5124735;27;20471;-78
2021/08/14 10:11:01;;;;;;;8.93;4.22;;;24.70;99.90;;;;;;5131948;27;20019;-78
2021/08/14 10:13:29;;;;;;;13.00;4.00;;;24.90;99.90;;;;;;5127636;27;20050;-78
2021/08/14 10:15:56;;;;;;;9.15;4.18;;;25.00;99.90;;;;;;5125618;27;20067;-78
2021/08/14 10:18:25;;;;;;;8.65;4.28;;;25.10;99.90;;;;;;5122583;27;20024;-78
2021/08/14 10:20:56;;;;;;;12.43;4.70;;;25.10;99.90;;;;;;5121560;27;20035;-78
2021/08/14 10:23:24;;;;;;;10.15;4.68;;;25.20;99.90;;;;;;5134088;27;20475;-78
2021/08/14 10:26:04;;;;;;;10.40;4.85;;;25.30;99.90;;;;;;5133657;27;20028;-78
2021/08/14 10:28:58;;;;;;;10.43;4.68;;;25.40;99.90;;;;;;5120377;27;20035;-78
2021/08/14 10:31:32;;;;;;;10.50;4.65;;;25.50;99.90;;;;;;5120930;27;20015;-78
2021/08/14 10:34:11;;;;;;;11.07;4.63;;;25.50;99.90;;;;;;5130543;27;20410;-78
2021/08/14 10:37:03;;;;;;;11.93;4.93;;;25.50;99.90;;;;;;5125340;27;20488;-78
2021/08/14 10:39:31;;;;;;;14.93;5.10;;;25.70;99.90;;;;;;5136139;27;20535;-78
2021/08/14 10:42:02;;;;;;;10.50;4.57;;;25.80;99.90;;;;;;5136214;27;20467;-79
2021/08/14 10:44:41;;;;;;;12.02;5.97;;;25.90;99.90;;;;;;5135619;27;20065;-79
2021/08/14 10:47:32;;;;;;;10.93;4.25;;;25.80;99.90;;;;;;5124464;27;20140;-79
2021/08/14 10:50:03;;;;;;;11.60;4.45;;;25.50;99.60;;;;;;5116176;28;20022;-78
2021/08/14 10:52:35;;;;;;;13.77;4.07;;;25.30;99.90;;;;;;5131316;27;20484;-78
2021/08/14 10:55:10;;;;;;;12.45;4.85;;;25.50;99.90;;;;;;5122013;27;20281;-78
2021/08/14 10:57:43;;;;;;;9.98;4.05;;;25.60;99.90;;;;;;5135492;27;20023;-78
2021/08/14 11:00:30;;;;;;;14.35;4.35;;;25.70;99.90;;;;;;5136396;27;20026;-78
2021/08/14 11:03:01;;;;;;;14.43;4.95;;;26.00;99.90;;;;;;5120469;27;20041;-78
2021/08/14 11:05:28;;;;;;;13.13;4.80;;;26.20;99.90;;;;;;5123861;27;20047;-78
2021/08/14 11:08:00;;;;;;;14.35;5.22;;;26.40;99.90;;;;;;5129840;27;20490;-78
2021/08/14 11:10:32;;;;;;;18.77;5.27;;;26.40;99.90;;;;;;5121017;27;20479;-78
2021/08/14 11:13:01;;;;;;;9.05;3.92;;;26.50;99.90;;;;;;5133681;27;20016;-78
2021/08/14 11:15:29;;;;;;;11.90;4.25;;;26.40;99.90;;;;;;5128975;27;20058;-78
2021/08/14 11:17:58;;;;;;;11.38;4.80;;;26.30;99.90;;;;;;5131620;27;20049;-78
2021/08/14 11:20:40;;;;;;;14.90;5.18;;;26.50;99.90;;;;;;5134974;27;20019;-78
2021/08/14 11:23:34;;;;;;;11.77;5.20;;;26.40;99.90;;;;;;5135151;27;20049;-78
2021/08/14 11:26:06;;;;;;;11.30;4.85;;;26.40;99.90;;;;;;5131708;27;20067;-78
2021/08/14 11:28:34;;;;;;;11.83;5.57;;;26.50;99.90;;;;;;5136210;27;20064;-78
2021/08/14 11:31:04;;;;;;;9.63;4.25;;;26.70;99.90;;;;;;5132134;27;20020;-78
2021/08/14 11:33:41;;;;;;;8.25;5.32;;;26.80;99.90;;;;;;5126420;27;20039;-79
2021/08/14 11:36:10;;;;;;;11.55;5.53;;;26.90;99.50;;;;;;5135757;27;20023;-79
2021/08/14 11:38:41;;;;;;;16.35;5.10;;;27.00;99.70;;;;;;5128745;27;20542;-79
2021/08/14 11:41:21;;;;;;;12.95;5.00;;;27.10;98.80;;;;;;5135604;27;20068;-79
2021/08/14 11:43:49;;;;;;;13.05;5.32;;;27.10;99.30;;;;;;5135699;27;20023;-78
2021/08/14 11:46:25;;;;;;;15.82;5.60;;;26.90;98.70;;;;;;5130575;27;20032;-79
2021/08/14 11:48:54;;;;;;;10.55;5.00;;;26.90;99.10;;;;;;5116901;27;20059;-79
2021/08/14 11:51:22;;;;;;;13.57;5.68;;;27.10;99.60;;;;;;5129412;27;20023;-79
2021/08/14 11:54:07;;;;;;;13.57;5.03;;;27.10;98.10;;;;;;5124325;27;20047;-78
2021/08/14 11:56:39;;;;;;;10.45;4.85;;;27.20;99.00;;;;;;5122131;27;20015;-78
2021/08/14 11:59:08;;;;;;;14.80;5.32;;;27.30;98.10;;;;;;5127126;27;20035;-78
2021/08/14 12:01:36;;;;;;;14.23;5.30;;;27.40;99.70;;;;;;5114074;27;20535;-78
2021/08/14 12:04:02;;;;;;;13.13;5.35;;;27.60;98.10;;;;;;5117801;27;20110;-79
2021/08/14 12:06:34;;;;;;;12.43;5.38;;;27.50;98.50;;;;;;5123850;27;20015;-78
2021/08/14 12:09:05;;;;;;;12.95;4.88;;;27.50;97.10;;;;;;5125061;27;20032;-78
2021/08/14 12:11:36;;;;;;;11.55;5.53;;;27.50;98.30;;;;;;5134855;27;20072;-79
2021/08/14 12:14:18;;;;;;;12.53;5.10;;;27.70;97.50;;;;;;5135177;27;20054;-78
2021/08/14 12:16:48;;;;;;;15.10;5.22;;;27.70;97.30;;;;;;5119162;27;20034;-79
2021/08/14 12:19:22;;;;;;;14.55;5.15;;;27.80;97.70;;;;;;5124537;27;20031;-79
2021/08/14 12:22:08;;;;;;;11.93;5.05;;;27.90;97.70;;;;;;5125401;27;20391;-79
2021/08/14 12:24:36;;;;;;;12.27;5.60;;;27.90;98.50;;;;;;5129244;27;20034;-80
2021/08/14 12:27:30;;;;;;;12.48;5.60;;;27.80;97.00;;;;;;5126918;27;20031;-78
2021/08/14 12:30:17;;;;;;;12.63;6.03;;;27.80;98.10;;;;;;5124913;27;20118;-79
2021/08/14 12:32:44;;;;;;;12.82;5.47;;;28.00;99.20;;;;;;5128751;27;20032;-80
2021/08/14 12:35:22;;;;;;;13.73;6.22;;;28.00;97.20;;;;;;5127596;27;20028;-79
2021/08/14 12:38:04;;;;;;;14.60;6.30;;;28.10;98.80;;;;;;5128066;27;20375;-78
2021/08/14 12:40:40;;;;;;;14.18;5.53;;;28.20;98.90;;;;;;5117963;27;20105;-78